Latest Weather Observations for Williamtown

IDN60901

Issued at 1:55 pm EDT Saturday 25 October 2014 (issued every 10 minutes, with the page automatically refreshed every 10 minutes)

About weather observations | Map of Sydney area stations | Latest observations for Sydney area | Other Formats
Station Details ID: 061078 Name: WILLIAMTOWN RAAF Lat: -32.79 Lon: 151.84 Height: 9.0 m
Data from the previous 72 hours. | See also: Recent months at Williamtown
Date/Time
EDT
Tmp

°C
App
Tmp
°C
Dew
Point
°C
Rel
Hum
%
Delta-T

°C
Wind Press
QNH
hPa
Press
MSL
hPa
Rain
since
9 am
mm
Dir
 
Spd
km/h
Gust
km/h
Spd
kts
Gust
kts
25/01:30pm 28.1 27.1 16.7 50 7.1 S 17 22 9 12 1014.2 - 0.2
25/01:00pm 27.9 26.7 16.1 48 7.3 S 17 20 9 11 1014.3 - 0.2
25/12:30pm 28.9 27.6 16.7 47 7.6 SSE 19 24 10 13 1014.3 - 0.2
25/12:00pm 29.5 28.8 15.3 42 8.7 S 13 22 7 12 1014.6 1014.7 0.2
25/11:30am 29.5 27.0 14.0 38 9.3 S 20 26 11 14 1015.2 - 0.2
25/11:00am 28.9 26.4 13.4 38 9.2 W 19 22 10 12 1015.3 - 0.2
25/10:30am 28.1 26.8 13.6 41 8.6 WNW 13 19 7 10 1015.5 - 0.2
25/10:00am 27.2 26.0 14.1 44 7.8 WNW 13 17 7 9 1015.5 - 0.0
25/09:30am 25.7 25.9 15.7 54 6.1 WNW 9 15 5 8 1015.4 - 0.0
25/09:00am 24.7 24.3 15.2 55 5.7 W 11 15 6 8 1015.4 1015.5 1.0
25/08:30am 24.0 23.4 15.7 59 5.0 W 13 17 7 9 1015.1 - 1.0
25/08:00am 22.9 22.1 16.1 65 4.1 W 15 19 8 10 1015.0 - 1.0
25/07:30am 20.1 21.7 16.8 81 2.0 WNW 4 13 2 7 1014.5 - 1.0
25/07:00am 18.0 18.0 16.3 90 1.0 NW 11 13 6 7 1014.0 - 1.0
25/06:30am 17.2 18.8 16.0 93 0.7 NW 2 11 1 6 1013.5 - 1.0
25/06:00am 17.0 16.2 16.0 94 0.6 NW 15 19 8 10 1013.0 1013.1 1.0
25/05:44am 16.4 18.3 15.7 96 0.4 CALM 0 9 0 5 1012.8 - 1.0
25/05:34am 16.1 18.0 15.8 98 0.2 CALM 0 0 0 0 1012.6 - 1.0
25/05:31am 16.3 18.1 15.6 96 0.4 CALM 0 0 0 0 1012.5 - 1.0
25/05:30am 16.3 18.1 15.6 96 0.4 CALM 0 0 0 0 1012.5 - 1.0
25/05:00am 16.8 18.8 16.1 96 0.4 CALM 0 0 0 0 1012.3 - 1.0
25/04:30am 17.4 18.3 16.7 96 0.4 NNE 7 9 4 5 1012.0 - 1.0
25/04:00am 17.5 18.0 16.5 94 0.6 N 9 11 5 6 1012.0 - 1.0
25/03:30am 19.1 21.5 17.1 88 1.2 CALM 0 0 0 0 1011.9 - 1.0
25/03:00am 19.6 20.9 17.1 85 1.5 N 6 11 3 6 1011.8 1011.9 1.0
25/02:30am 20.0 20.4 17.2 84 1.7 N 11 13 6 7 1011.8 - 1.0
25/02:00am 20.8 20.5 17.4 81 2.1 NNE 15 19 8 10 1012.0 - 1.0
25/01:30am 21.3 20.9 17.2 77 2.5 N 15 22 8 12 1012.2 - 1.0
25/01:00am 21.2 20.6 17.5 79 2.3 N 17 28 9 15 1012.4 - 1.0
25/12:30am 20.5 19.6 18.1 86 1.5 N 20 26 11 14 1012.9 - 1.0
25/12:00am 20.3 19.1 18.4 89 1.2 NNE 22 28 12 15 1012.9 1013.0 1.0
 
Date/Time
EDT
Tmp

°C
App
Tmp
°C
Dew
Point
°C
Rel
Hum
%
Delta-T

°C
Wind Press
QNH
hPa
Press
MSL
hPa
Rain
since
9 am
mm
Dir
 
Spd
km/h
Gust
km/h
Spd
kts
Gust
kts
24/11:42pm 21.0 18.4 17.9 82 1.9 E 28 43 15 23 1013.0 - 1.0
24/11:30pm 20.8 20.3 18.6 87 1.4 E 19 20 10 11 1014.3 - 0.8
24/11:00pm 21.0 21.1 18.3 84 1.7 W 15 20 8 11 1016.1 - 0.0
24/10:59pm 21.0 20.7 18.3 84 1.7 WSW 17 20 9 11 1016.2 - 0.0
24/10:42pm 22.1 19.2 17.0 73 3.1 W 28 48 15 26 1014.2 - 0.0
24/10:30pm 22.3 21.3 16.7 70 3.4 NE 17 28 9 15 1012.6 - 0.0
24/10:00pm 22.4 21.4 16.7 70 3.5 NE 17 26 9 14 1012.9 - 0.0
24/09:30pm 22.6 21.1 16.7 69 3.6 NE 20 28 11 15 1013.2 - 0.0
24/09:00pm 22.7 21.3 16.6 68 3.7 NE 19 28 10 15 1013.4 1013.5 0.0
24/08:30pm 22.4 21.6 17.2 72 3.2 NE 17 26 9 14 1013.5 - 0.0
24/08:00pm 22.6 21.3 16.9 70 3.5 ENE 19 26 10 14 1013.6 - 0.0
24/07:30pm 23.3 21.8 16.4 65 4.2 NE 19 28 10 15 1013.6 - 0.0
24/07:00pm 24.2 22.7 16.2 61 4.9 ENE 19 28 10 15 1013.6 - 0.0
24/06:30pm 25.2 23.7 16.4 58 5.4 NE 19 26 10 14 1013.7 - 0.0
24/06:00pm 26.4 24.4 16.5 54 6.1 ENE 22 30 12 16 1013.5 1013.6 0.0
24/05:30pm 27.7 26.6 17.2 52 6.6 NE 19 28 10 15 1013.7 - 0.0
24/05:00pm 28.3 27.3 17.5 52 6.8 NE 19 28 10 15 1013.8 - 0.0
24/04:30pm 28.7 27.6 17.3 50 7.2 NE 19 28 10 15 1014.2 - 0.0
24/04:00pm 28.4 27.5 16.9 49 7.2 NE 17 26 9 14 1014.6 - 0.0
24/03:30pm 27.9 27.1 17.0 51 6.8 NNE 17 24 9 13 1015.3 - 0.0
24/03:00pm 27.1 26.3 17.2 54 6.2 ENE 17 24 9 13 1016.0 1016.1 0.0
24/02:30pm 26.1 24.7 16.5 55 5.9 ENE 19 26 10 14 1016.7 - 0.0
24/02:00pm 26.6 26.1 16.9 55 6.0 NNE 15 24 8 13 1017.2 - 0.0
24/01:30pm 25.2 24.8 17.1 60 5.0 NE 15 19 8 10 1017.7 - 0.0
24/01:00pm 23.5 22.2 16.8 66 4.1 NE 19 22 10 12 1018.5 - 0.0
24/12:30pm 24.2 24.4 15.8 59 5.1 SSE 9 24 5 13 1019.5 - 0.0
24/12:00pm 24.1 23.8 15.4 58 5.2 NW 11 15 6 8 1019.7 1019.8 0.0
24/11:30am 24.3 23.2 15.3 57 5.4 WNW 15 22 8 12 1019.8 - 0.0
24/11:00am 24.1 23.5 15.6 59 5.1 NNW 13 22 7 12 1019.9 - 0.0
24/10:30am 23.2 22.3 15.9 63 4.4 NNW 15 22 8 12 1020.1 - 0.0
24/10:00am 21.0 20.7 16.5 75 2.7 NNW 13 17 7 9 1020.9 - 0.0
24/09:54am 20.8 20.8 16.3 75 2.7 N 11 17 6 9 1020.8 - 0.0
24/09:43am 20.3 20.0 16.5 79 2.3 N 13 17 7 9 1020.6 - 0.0
24/09:30am 19.8 19.3 16.8 83 1.8 NNW 15 20 8 11 1020.7 - 0.0
24/09:00am 19.5 18.9 16.7 84 1.7 WSW 15 22 8 12 1020.8 1020.9 0.0
24/08:50am 19.4 18.1 16.9 85 1.5 WSW 19 24 10 13 1020.9 - 0.0
24/08:30am 18.9 17.3 16.6 86 1.4 NNE 20 28 11 15 1019.2 - 0.0
24/08:00am 17.9 18.0 16.6 92 0.8 N 11 15 6 8 1020.6 - 0.0
24/07:53am 17.8 17.6 16.6 93 0.7 N 13 17 7 9 1020.6 - 0.0
24/07:30am 17.5 18.1 16.7 95 0.5 N 9 13 5 7 1020.7 - 0.0
24/07:00am 16.6 16.9 16.1 97 0.3 NNW 9 11 5 6 1020.7 - 0.0
24/06:30am 16.5 16.9 16.2 98 0.2 N 9 11 5 6 1020.5 - 0.0
24/06:00am 16.5 16.8 16.0 97 0.3 NW 9 11 5 6 1020.6 1020.7 0.0
24/05:42am 16.5 18.6 16.2 98 0.2 CALM 0 0 0 0 1020.4 - 0.0
24/05:30am 16.4 16.7 16.1 98 0.2 W 9 11 5 6 1020.2 - 0.0
24/05:26am 16.4 16.7 16.1 98 0.2 W 9 11 5 6 1020.2 - 0.0
24/05:25am 16.4 16.3 16.1 98 0.2 W 11 11 6 6 1020.2 - 0.0
24/05:00am 14.2 15.4 13.7 97 0.3 CALM 0 0 0 0 1019.5 - 0.0
24/04:57am 14.0 15.1 13.5 97 0.3 CALM 0 0 0 0 1019.4 - 0.0
24/04:44am 13.1 13.9 12.7 97 0.2 CALM 0 0 0 0 1018.9 - 0.0
24/04:34am 13.2 14.1 12.8 97 0.2 CALM 0 0 0 0 1019.0 - 0.0
24/04:30am 13.0 13.9 12.8 99 0.1 CALM 0 0 0 0 1019.0 - 0.0
24/04:23am 13.5 14.5 13.1 97 0.2 CALM 0 0 0 0 1018.8 - 0.0
24/04:22am 13.4 14.3 13.0 97 0.2 CALM 0 0 0 0 1018.8 - 0.0
24/04:00am 13.6 14.6 13.1 97 0.3 CALM 0 0 0 0 1018.7 - 0.0
24/03:30am 14.0 14.7 13.3 96 0.4 NW 2 7 1 4 1018.5 - 0.0
24/03:18am 13.7 13.8 12.8 94 0.5 WSW 4 9 2 5 1019.0 - 0.0
24/03:10am 13.0 13.8 12.4 96 0.3 CALM 0 0 0 0 1018.8 - 0.0
24/03:00am 13.1 13.9 12.4 95 0.4 CALM 0 0 0 0 1018.9 1019.0 0.0
24/02:42am 14.0 14.9 12.9 93 0.6 CALM 0 0 0 0 1018.8 - 0.0
24/02:30am 14.3 15.3 13.2 93 0.6 CALM 0 0 0 0 1018.9 - 0.0
24/02:00am 13.9 14.7 12.4 91 0.8 CALM 0 0 0 0 1019.0 - 0.0
24/01:30am 14.5 15.6 13.4 93 0.6 CALM 0 0 0 0 1019.3 - 0.0
24/01:00am 14.9 16.2 14.2 96 0.4 CALM 0 0 0 0 1019.4 - 0.0
24/12:30am 14.7 14.1 13.6 93 0.6 W 9 11 5 6 1019.4 - 0.0
24/12:00am 15.2 16.5 14.1 93 0.6 CALM 0 0 0 0 1019.2 1019.3 0.0
 
Date/Time
EDT
Tmp

°C
App
Tmp
°C
Dew
Point
°C
Rel
Hum
%
Delta-T

°C
Wind Press
QNH
hPa
Press
MSL
hPa
Rain
since
9 am
mm
Dir
 
Spd
km/h
Gust
km/h
Spd
kts
Gust
kts
23/11:30pm 14.9 16.0 13.5 91 0.8 CALM 0 0 0 0 1019.5 - 0.0
23/11:00pm 15.4 16.7 14.2 92 0.7 CALM 0 0 0 0 1019.5 - 0.0
23/10:30pm 15.9 17.2 14.1 89 1.0 CALM 0 0 0 0 1019.5 - 0.0
23/10:00pm 16.5 18.1 14.9 90 0.9 CALM 0 0 0 0 1019.2 - 0.0
23/09:30pm 17.1 18.7 15.0 87 1.2 CALM 0 0 0 0 1019.1 - 0.0
23/09:00pm 18.2 19.3 15.6 85 1.5 ESE 4 7 2 4 1018.7 1018.8 0.0
23/08:30pm 19.5 21.0 15.6 78 2.3 ENE 2 9 1 5 1018.2 - 0.0
23/08:00pm 19.9 21.0 14.6 71 3.1 ENE 2 9 1 5 1017.9 - 0.0
23/07:30pm 21.5 22.7 13.9 62 4.4 CALM 0 0 0 0 1017.7 - 0.0
23/07:00pm 22.6 21.8 13.0 54 5.5 NE 9 15 5 8 1017.1 - 0.0
23/06:30pm 24.2 23.1 14.4 54 5.8 ENE 13 17 7 9 1016.7 - 0.0
23/06:00pm 25.3 23.5 13.3 47 7.0 E 15 20 8 11 1016.0 1016.1 0.0
23/05:30pm 26.1 23.3 12.6 43 7.8 ESE 19 24 10 13 1015.9 - 0.0
23/05:00pm 27.5 25.1 12.8 40 8.6 ESE 17 19 9 10 1015.7 - 0.0
23/04:30pm 28.2 26.3 12.9 38 9.0 ESE 15 22 8 12 1015.4 - 0.0
23/04:00pm 28.4 26.1 13.1 39 9.0 SE 17 19 9 10 1015.4 - 0.0
23/03:30pm 28.3 26.0 14.1 41 8.5 SE 19 22 10 12 1015.3 - 0.0
23/03:00pm 29.3 27.9 14.6 40 8.9 SE 15 20 8 11 1015.5 1015.6 0.0
23/02:30pm 29.6 29.4 13.5 37 9.6 ESE 7 17 4 9 1015.6 - 0.0
23/02:00pm 29.2 28.4 12.9 36 9.6 W 9 13 5 7 1016.1 - 0.0
23/01:30pm 28.5 27.2 12.6 37 9.3 W 11 17 6 9 1016.5 - 0.0
23/01:00pm 27.8 26.5 12.5 38 8.9 WNW 11 17 6 9 1016.7 - 0.0
23/12:30pm 28.0 25.4 11.9 36 9.3 WNW 17 22 9 12 1017.1 - 0.0
23/12:00pm 26.3 24.9 13.5 45 7.5 NW 13 17 7 9 1017.4 1017.5 0.0
23/11:30am 25.5 24.0 13.1 46 7.2 NNW 13 20 7 11 1017.8 - 0.0
23/11:00am 24.5 23.0 13.1 49 6.6 NNW 13 17 7 9 1018.2 - 0.0
23/10:30am 23.3 21.8 13.0 52 5.9 NNW 13 17 7 9 1018.4 - 0.0
23/10:00am 22.3 21.4 12.6 54 5.5 NNW 9 17 5 9 1018.7 - 0.0
23/09:30am 21.1 20.0 12.0 56 5.1 NNW 9 15 5 8 1018.8 - 0.0
23/09:00am 20.2 19.4 13.0 63 4.1 N 9 13 5 7 1019.0 1019.1 0.0
23/08:30am 18.0 17.7 13.4 74 2.6 N 7 11 4 6 1019.0 - 0.0
23/08:00am 15.6 15.4 13.6 88 1.1 N 7 9 4 5 1018.9 - 0.0
23/07:30am 14.6 13.9 13.1 91 0.8 N 9 11 5 6 1018.6 - 0.0
23/07:00am 13.0 13.8 12.4 96 0.3 CALM 0 0 0 0 1018.7 - 0.0
23/06:30am 10.9 11.0 10.3 96 0.3 CALM 0 0 0 0 1018.7 - 0.0
23/06:00am 11.7 12.0 10.9 95 0.4 CALM 0 0 0 0 1018.6 1018.7 0.0
23/05:30am 11.3 10.0 11.1 99 0.1 N 9 11 5 6 1018.3 - 0.0
23/05:00am 11.7 10.4 11.1 96 0.3 N 9 9 5 5 1018.2 - 0.0
23/04:30am 12.2 12.6 11.2 94 0.5 CALM 0 0 0 0 1018.1 - 0.0
23/04:00am 11.6 11.8 10.6 94 0.5 CALM 0 0 0 0 1018.1 - 0.0
23/03:30am 12.1 12.3 10.7 91 0.7 CALM 0 0 0 0 1018.2 - 0.0
23/03:00am 12.8 13.3 11.5 92 0.7 CALM 0 0 0 0 1018.4 1018.5 0.0
23/02:30am 13.8 14.4 11.9 88 1.0 CALM 0 0 0 0 1018.6 - 0.0
23/02:00am 14.5 15.2 12.3 87 1.2 CALM 0 0 0 0 1018.8 - 0.0
23/01:30am 15.0 15.3 12.2 83 1.5 N 2 7 1 4 1019.1 - 0.0
23/01:00am 15.4 14.5 12.5 83 1.6 NE 9 15 5 8 1019.4 - 0.0
23/12:30am 15.8 14.5 12.5 81 1.8 NE 11 17 6 9 1019.7 - 0.0
23/12:00am 16.1 14.8 12.5 79 2.0 NE 11 15 6 8 1020.0 1020.1 0.0
 
Date/Time
EDT
Tmp

°C
App
Tmp
°C
Dew
Point
°C
Rel
Hum
%
Delta-T

°C
Wind Press
QNH
hPa
Press
MSL
hPa
Rain
since
9 am
mm
Dir
 
Spd
km/h
Gust
km/h
Spd
kts
Gust
kts
22/11:30pm 16.6 14.9 12.4 76 2.3 NE 13 19 7 10 1020.1 - 0.0
22/11:00pm 16.7 15.0 12.5 76 2.3 NNE 13 22 7 12 1020.2 - 0.0
22/10:30pm 17.2 14.8 12.5 74 2.6 NNE 17 24 9 13 1020.5 - 0.0
22/10:00pm 17.4 14.9 12.3 72 2.8 NE 17 26 9 14 1020.5 - 0.0
22/09:30pm 17.4 14.4 12.1 71 2.9 NE 19 28 10 15 1020.5 - 0.0
22/09:00pm 17.6 14.5 11.7 68 3.2 NE 19 28 10 15 1020.5 1020.6 0.0
22/08:30pm 18.1 14.8 11.7 66 3.5 NE 20 28 11 15 1020.3 - 0.0
22/08:00pm 18.3 15.3 12.1 67 3.4 ENE 19 33 10 18 1020.3 - 0.0
22/07:30pm 18.8 15.7 11.7 63 3.9 ENE 19 30 10 16 1020.2 - 0.0
22/07:00pm 19.4 16.7 11.8 61 4.2 ENE 17 24 9 13 1020.3 - 0.0
22/06:30pm 20.2 16.8 11.3 56 4.9 ENE 20 33 11 18 1020.4 - 0.0
22/06:00pm 20.8 17.3 10.9 53 5.4 ENE 20 30 11 16 1020.5 1020.6 0.0
22/05:30pm 21.8 17.5 10.9 50 6.0 ENE 24 32 13 17 1020.6 - 0.0
22/05:00pm 22.3 18.7 10.6 47 6.4 ENE 20 33 11 18 1020.8 - 0.0
22/04:30pm 22.4 18.4 10.5 47 6.5 ENE 22 32 12 17 1021.1 - 0.0
22/04:00pm 22.6 18.5 10.1 45 6.8 ENE 22 28 12 15 1021.4 - 0.0
22/03:30pm 22.8 19.0 9.9 44 7.0 E 20 28 11 15 1021.7 - 0.0
22/03:00pm 23.1 18.7 10.3 44 7.0 E 24 32 13 17 1022.0 1022.1 0.0
22/02:30pm 23.6 20.5 10.3 43 7.3 ENE 17 26 9 14 1022.5 - 0.0
22/02:00pm 22.9 20.3 9.5 42 7.2 ENE 13 22 7 12 1023.1 - 0.0

Latest Capital City Observations: Canberra | Sydney | Melbourne | Brisbane | Adelaide | Perth | Hobart | Darwin

Other Formats:

Comma delimited format used in spreadsheet applications
http://www.bom.gov.au/fwo/IDN60901/IDN60901.94776.axf

JavaScript Object Notation format (JSON) in row-major order
http://www.bom.gov.au/fwo/IDN60901/IDN60901.94776.json